Time;durP1;ratioP1;P1;durP2;ratioP2;P2;SDS_P1;SDS_P2;PMS_P1;PMS_P2;Temp;Humidity;BMP_temperature;BMP_pressure;BME280_temperature;BME280_humidity;BME280_pressure;Samples;Min_cycle;Max_cycle;Signal;HPM_P1;HPM_P2
2023/07/06 00:01:49;;;;;;;;;;;12.90;99.90;;;;;;5033489;28;19935;-87
2023/07/06 00:04:14;;;;;;;;;;;12.80;99.90;;;;;;5036238;28;20012;-88
2023/07/06 00:06:40;;;;;;;;;;;12.80;99.90;;;;;;5034310;28;19944;-85
2023/07/06 00:09:06;;;;;;;;;;;12.80;99.90;;;;;;5033716;28;19932;-85
2023/07/06 00:11:35;;;;;;;;;;;12.70;99.90;;;;;;5028325;28;20430;-86
2023/07/06 00:14:01;;;;;;;;;;;12.70;99.90;;;;;;5034921;28;19928;-89
2023/07/06 00:16:27;;;;;;;;;;;12.70;99.90;;;;;;5035102;28;20015;-87
2023/07/06 00:18:52;;;;;;;;;;;12.70;99.90;;;;;;5029795;28;19933;-86
2023/07/06 00:21:18;;;;;;;;;;;12.70;99.90;;;;;;5033344;28;19936;-86
2023/07/06 00:23:43;;;;;;;;;;;12.60;99.90;;;;;;5029238;28;19925;-87
2023/07/06 00:26:09;;;;;;;;;;;12.60;99.90;;;;;;5016263;28;20031;-87
2023/07/06 00:28:35;;;;;;;;;;;12.50;99.90;;;;;;5032964;28;20398;-86
2023/07/06 00:31:10;;;;;;;;;;;12.50;99.90;;;;;;5031754;28;19925;-86
2023/07/06 00:33:36;;;;;;;;;;;12.50;99.90;;;;;;5031595;28;19954;-87
2023/07/06 00:36:03;;;;;;;;;;;12.50;99.90;;;;;;5030586;28;19929;-86
2023/07/06 00:38:28;;;;;;;;;;;12.50;99.90;;;;;;5032957;28;19940;-87
2023/07/06 00:40:58;;;;;;;;;;;12.50;99.90;;;;;;5031433;28;20291;-87
2023/07/06 00:43:25;;;;;;;;;;;12.40;99.90;;;;;;5029563;28;19929;-89
2023/07/06 00:45:52;;;;;;;;;;;12.40;99.90;;;;;;5010485;28;19939;-88
2023/07/06 00:48:26;;;;;;;;;;;12.30;99.90;;;;;;5030992;28;19948;-87
2023/07/06 00:51:00;;;;;;;;;;;12.30;99.90;;;;;;5027141;28;19972;-88
2023/07/06 00:53:28;;;;;;;;;;;12.30;99.90;;;;;;5029109;28;20388;-86
2023/07/06 00:55:57;;;;;;;;;;;12.30;99.90;;;;;;5033562;28;20345;-85
2023/07/06 00:58:29;;;;;;;;;;;12.20;99.90;;;;;;5029779;28;19933;-86
2023/07/06 01:00:57;;;;;;;;;;;12.20;99.90;;;;;;5030295;28;20401;-85
2023/07/06 01:03:23;;;;;;;;;;;12.10;99.90;;;;;;5028444;28;19980;-88
2023/07/06 01:05:50;;;;;;;;;;;12.10;99.90;;;;;;5029856;28;19932;-86
2023/07/06 01:08:18;;;;;;;;;;;12.10;99.90;;;;;;5013048;28;19931;-86
2023/07/06 01:10:43;;;;;;;;;;;12.00;99.90;;;;;;5029445;28;19929;-87
2023/07/06 01:13:09;;;;;;;;;;;12.00;99.90;;;;;;5028878;28;19926;-86
2023/07/06 01:15:38;;;;;;;;;;;12.00;99.90;;;;;;5029296;28;19925;-88
2023/07/06 01:18:07;;;;;;;;;;;12.00;99.90;;;;;;5030854;28;20381;-86
2023/07/06 01:20:39;;;;;;;;;;;12.00;99.90;;;;;;5028521;28;20447;-84
2023/07/06 01:23:25;;;;;;;;;;;11.90;99.90;;;;;;5033815;28;20004;-87
2023/07/06 01:26:08;;;;;;;;;;;11.90;99.90;;;;;;5029412;28;19929;-85
2023/07/06 01:28:46;;;;;;;;;;;11.90;99.90;;;;;;5031413;28;19925;-85
2023/07/06 01:31:36;;;;;;;;;;;11.80;99.90;;;;;;5028504;28;19933;-87
2023/07/06 01:34:20;;;;;;;;;;;11.80;99.90;;;;;;5031913;28;19925;-86
2023/07/06 01:37:05;;;;;;;;;;;11.80;99.90;;;;;;5029914;28;19929;-86
2023/07/06 01:39:30;;;;;;;;;;;11.90;99.90;;;;;;5017286;28;19936;-88
2023/07/06 01:42:14;;;;;;;;;;;11.90;99.90;;;;;;5031340;28;19933;-87
2023/07/06 01:44:47;;;;;;;;;;;11.90;99.90;;;;;;5016740;28;20265;-87
2023/07/06 01:47:17;;;;;;;;;;;11.90;99.90;;;;;;5030946;28;19925;-87
2023/07/06 01:49:43;;;;;;;;;;;12.00;99.90;;;;;;5033456;28;20717;-87
2023/07/06 01:52:14;;;;;;;;;;;12.00;99.90;;;;;;5029123;28;19980;-87
2023/07/06 01:55:08;;;;;;;;;;;12.00;99.90;;;;;;5011235;28;20017;-86
2023/07/06 01:57:49;;;;;;;;;;;12.00;99.90;;;;;;5027879;28;19929;-86
2023/07/06 02:00:18;;;;;;;;;;;12.00;99.90;;;;;;5039211;28;19933;-87
2023/07/06 02:02:45;;;;;;;;;;;12.10;99.90;;;;;;5032072;28;19932;-84
2023/07/06 02:05:12;;;;;;;;;;;12.10;99.90;;;;;;5027726;28;19929;-87
2023/07/06 02:07:40;;;;;;;;;;;12.10;99.90;;;;;;5032695;28;20040;-86
2023/07/06 02:10:06;;;;;;;;;;;12.10;99.90;;;;;;5032156;28;19929;-88
2023/07/06 02:12:31;;;;;;;;;;;12.10;99.90;;;;;;5029537;28;19983;-86
2023/07/06 02:14:58;;;;;;;;;;;12.10;99.90;;;;;;5030972;28;20040;-88
2023/07/06 02:17:23;;;;;;;;;;;12.10;99.90;;;;;;5029225;28;19992;-85
2023/07/06 02:19:50;;;;;;;;;;;12.10;99.90;;;;;;5030773;28;20451;-84
2023/07/06 02:22:17;;;;;;;;;;;12.10;99.90;;;;;;5058068;28;19944;-87
2023/07/06 02:24:44;;;;;;;;;;;12.20;99.90;;;;;;5026802;28;20439;-87
2023/07/06 02:27:10;;;;;;;;;;;12.20;99.90;;;;;;5026063;28;19979;-85
2023/07/06 02:29:36;;;;;;;;;;;12.20;99.90;;;;;;5043296;28;19933;-86
2023/07/06 02:32:02;;;;;;;;;;;12.20;99.90;;;;;;5027260;28;19931;-87
2023/07/06 02:34:28;;;;;;;;;;;12.20;99.90;;;;;;5027030;28;19929;-87
2023/07/06 02:36:54;;;;;;;;;;;12.20;99.90;;;;;;5010971;28;20351;-87
2023/07/06 02:39:27;;;;;;;;;;;12.30;99.90;;;;;;5028126;28;19979;-87
2023/07/06 02:41:54;;;;;;;;;;;12.20;99.90;;;;;;5028493;28;19929;-87
2023/07/06 02:44:20;;;;;;;;;;;12.20;99.90;;;;;;5029149;28;19975;-87
2023/07/06 02:46:46;;;;;;;;;;;12.20;99.90;;;;;;5028455;28;19925;-86
2023/07/06 02:49:12;;;;;;;;;;;12.20;99.90;;;;;;5013253;28;19972;-87
2023/07/06 02:51:38;;;;;;;;;;;12.20;99.90;;;;;;5057555;28;19928;-86
2023/07/06 02:54:04;;;;;;;;;;;12.20;99.90;;;;;;5029827;28;20046;-87
2023/07/06 02:56:30;;;;;;;;;;;12.20;99.90;;;;;;5018249;28;19975;-86
2023/07/06 02:58:55;;;;;;;;;;;12.20;99.90;;;;;;5035014;28;19932;-86
2023/07/06 03:01:21;;;;;;;;;;;12.30;99.90;;;;;;5022710;28;19924;-87
2023/07/06 03:03:47;;;;;;;;;;;12.30;99.90;;;;;;5047315;28;19924;-86
2023/07/06 03:06:12;;;;;;;;;;;12.30;99.90;;;;;;5035191;28;19924;-86
2023/07/06 03:08:38;;;;;;;;;;;12.30;99.90;;;;;;5020762;28;20352;-86
2023/07/06 03:11:04;;;;;;;;;;;12.30;99.90;;;;;;5036355;28;19925;-87
2023/07/06 03:13:31;;;;;;;;;;;12.30;99.90;;;;;;5024477;28;20336;-86
2023/07/06 03:15:56;;;;;;;;;;;12.30;99.90;;;;;;5034353;28;20454;-85
2023/07/06 03:18:26;;;;;;;;;;;12.30;99.90;;;;;;5029711;28;19935;-86
2023/07/06 03:20:51;;;;;;;;;;;12.30;99.90;;;;;;5017264;28;19929;-86
2023/07/06 03:23:18;;;;;;;;;;;12.30;99.90;;;;;;5039131;28;19941;-88
2023/07/06 03:25:43;;;;;;;;;;;12.30;99.90;;;;;;5021009;28;19933;-87
2023/07/06 03:28:09;;;;;;;;;;;12.30;99.90;;;;;;5029080;28;20376;-85
2023/07/06 03:30:35;;;;;;;;;;;12.30;99.90;;;;;;5016810;28;19985;-85
2023/07/06 03:33:00;;;;;;;;;;;12.30;99.90;;;;;;5034003;28;19925;-86
2023/07/06 03:35:26;;;;;;;;;;;12.30;99.90;;;;;;5037227;28;19937;-86
2023/07/06 03:37:58;;;;;;;;;;;12.30;99.90;;;;;;5029580;28;19972;-86
2023/07/06 03:40:26;;;;;;;;;;;12.30;99.90;;;;;;5032668;28;19935;-85
2023/07/06 03:42:54;;;;;;;;;;;12.40;99.90;;;;;;5015344;28;20379;-86
2023/07/06 03:45:19;;;;;;;;;;;12.40;99.90;;;;;;5025640;28;19929;-86
2023/07/06 03:47:45;;;;;;;;;;;12.40;99.90;;;;;;5029508;28;20020;-86
2023/07/06 03:50:12;;;;;;;;;;;12.40;99.90;;;;;;5030054;28;19925;-86
2023/07/06 03:52:39;;;;;;;;;;;12.50;99.90;;;;;;5032314;28;20007;-84
2023/07/06 03:55:05;;;;;;;;;;;12.50;99.90;;;;;;5053413;28;19936;-86
2023/07/06 03:57:31;;;;;;;;;;;12.60;99.90;;;;;;5039608;28;19924;-87
2023/07/06 03:59:57;;;;;;;;;;;12.60;99.90;;;;;;5041350;28;19931;-85
2023/07/06 04:02:22;;;;;;;;;;;12.60;99.90;;;;;;5039755;28;19966;-87
2023/07/06 04:04:48;;;;;;;;;;;12.70;99.90;;;;;;5041878;28;19951;-86
2023/07/06 04:07:14;;;;;;;;;;;12.70;99.90;;;;;;5049555;28;19993;-87
2023/07/06 04:09:39;;;;;;;;;;;12.80;99.90;;;;;;5034071;28;19924;-87
2023/07/06 04:12:06;;;;;;;;;;;12.80;99.90;;;;;;5036766;28;19935;-85
2023/07/06 04:14:31;;;;;;;;;;;12.80;99.90;;;;;;5035064;28;19929;-88
2023/07/06 04:16:57;;;;;;;;;;;12.90;99.90;;;;;;5051820;28;19932;-87
2023/07/06 04:19:23;;;;;;;;;;;12.90;99.90;;;;;;5037550;28;19975;-86
2023/07/06 04:21:49;;;;;;;;;;;13.00;99.90;;;;;;5051744;28;20070;-87
2023/07/06 04:24:16;;;;;;;;;;;13.00;99.90;;;;;;5036043;28;20396;-84
2023/07/06 04:26:42;;;;;;;;;;;13.00;99.90;;;;;;5052305;28;19924;-85
2023/07/06 04:29:10;;;;;;;;;;;13.00;99.90;;;;;;5048851;28;19947;-86
2023/07/06 04:31:36;;;;;;;;;;;13.00;99.90;;;;;;5036474;28;19933;-87
2023/07/06 04:34:03;;;;;;;;;;;13.00;99.90;;;;;;5037486;28;19975;-87
2023/07/06 04:36:31;;;;;;;;;;;13.00;99.90;;;;;;5040146;28;20006;-86
2023/07/06 04:38:58;;;;;;;;;;;13.00;99.90;;;;;;5041748;28;19932;-87
2023/07/06 04:41:25;;;;;;;;;;;13.00;99.90;;;;;;5018304;28;19991;-86
2023/07/06 04:43:52;;;;;;;;;;;13.00;99.90;;;;;;5037520;28;19936;-86
2023/07/06 04:46:17;;;;;;;;;;;13.00;99.90;;;;;;5039000;28;19924;-87
2023/07/06 04:48:44;;;;;;;;;;;13.00;99.90;;;;;;5044322;28;20058;-84
2023/07/06 04:51:11;;;;;;;;;;;13.10;99.90;;;;;;5053581;28;20059;-89
2023/07/06 04:53:37;;;;;;;;;;;13.20;99.90;;;;;;5042736;28;19925;-88
2023/07/06 04:56:03;;;;;;;;;;;13.40;99.90;;;;;;5066903;28;19947;-87
2023/07/06 04:58:29;;;;;;;;;;;13.50;99.90;;;;;;5053122;28;19929;-85
2023/07/06 05:00:55;;;;;;;;;;;13.60;99.90;;;;;;5037503;28;19929;-86
2023/07/06 05:03:20;;;;;;;;;;;13.70;99.90;;;;;;5035498;28;19939;-84
2023/07/06 05:05:46;;;;;;;;;;;13.80;99.90;;;;;;5058027;28;19925;-87
2023/07/06 05:08:15;;;;;;;;;;;13.90;99.90;;;;;;5035517;28;19936;-86
2023/07/06 05:10:46;;;;;;;;;;;14.10;99.90;;;;;;5052809;28;19980;-86
2023/07/06 05:13:12;;;;;;;;;;;14.50;99.90;;;;;;5036440;28;19929;-89
2023/07/06 05:15:37;;;;;;;;;;;15.00;99.90;;;;;;5034448;28;19928;-88
2023/07/06 05:18:03;;;;;;;;;;;15.50;99.90;;;;;;5033429;28;19964;-88
2023/07/06 05:20:31;;;;;;;;;;;16.10;99.90;;;;;;5050785;28;19928;-86
2023/07/06 05:22:57;;;;;;;;;;;16.60;99.90;;;;;;5049036;28;20422;-86
2023/07/06 05:25:23;;;;;;;;;;;17.20;99.90;;;;;;5032523;28;20023;-87
2023/07/06 05:27:49;;;;;;;;;;;17.70;99.90;;;;;;5033096;28;20049;-87
2023/07/06 05:30:15;;;;;;;;;;;18.10;99.90;;;;;;5051600;28;19936;-86
2023/07/06 05:32:41;;;;;;;;;;;18.30;99.90;;;;;;5022762;28;19933;-87
2023/07/06 05:35:07;;;;;;;;;;;18.20;99.90;;;;;;5037107;28;19994;-86
2023/07/06 05:37:33;;;;;;;;;;;18.20;99.90;;;;;;5052927;28;20375;-86
2023/07/06 05:40:01;;;;;;;;;;;18.30;99.90;;;;;;5051981;28;19928;-86
2023/07/06 05:42:27;;;;;;;;;;;18.70;99.90;;;;;;5051174;28;19931;-85
2023/07/06 05:44:52;;;;;;;;;;;18.70;99.90;;;;;;5055004;28;20322;-87
2023/07/06 05:47:18;;;;;;;;;;;18.40;99.90;;;;;;5041769;28;19932;-85
2023/07/06 05:49:43;;;;;;;;;;;18.10;99.90;;;;;;5043635;28;19974;-90
2023/07/06 05:52:09;;;;;;;;;;;17.70;99.90;;;;;;5039759;28;19931;-87
2023/07/06 05:54:34;;;;;;;;;;;17.80;99.90;;;;;;5024940;28;20900;-87
2023/07/06 05:57:02;;;;;;;;;;;18.10;99.90;;;;;;5040754;28;19940;-87
2023/07/06 05:59:29;;;;;;;;;;;18.70;99.90;;;;;;5043798;28;20300;-86
2023/07/06 06:01:55;;;;;;;;;;;19.20;99.90;;;;;;5022438;28;19932;-88
2023/07/06 06:04:20;;;;;;;;;;;19.70;99.90;;;;;;5055512;28;19933;-87
2023/07/06 06:06:47;;;;;;;;;;;20.10;99.90;;;;;;5054692;28;19935;-87
2023/07/06 06:09:12;;;;;;;;;;;20.40;99.90;;;;;;5057633;28;19968;-87
2023/07/06 06:11:38;;;;;;;;;;;20.60;99.90;;;;;;5056468;28;20358;-87
2023/07/06 06:14:04;;;;;;;;;;;20.80;99.90;;;;;;5039244;28;20004;-87
2023/07/06 06:16:32;;;;;;;;;;;20.80;99.90;;;;;;5042015;28;19928;-89
2023/07/06 06:18:58;;;;;;;;;;;20.50;99.90;;;;;;5042664;28;20467;-88
2023/07/06 06:21:24;;;;;;;;;;;20.10;99.90;;;;;;5057633;28;20279;-87
2023/07/06 06:23:49;;;;;;;;;;;20.00;99.90;;;;;;5041438;28;19951;-89
2023/07/06 06:26:15;;;;;;;;;;;19.80;99.90;;;;;;5058574;28;20074;-86
2023/07/06 06:28:41;;;;;;;;;;;19.70;99.90;;;;;;5040371;28;19933;-87
2023/07/06 06:31:08;;;;;;;;;;;19.70;99.90;;;;;;5044150;28;19933;-88
2023/07/06 06:33:33;;;;;;;;;;;19.90;99.90;;;;;;5054505;28;19977;-86
2023/07/06 06:36:00;;;;;;;;;;;20.40;99.90;;;;;;5043767;28;20302;-85
2023/07/06 06:38:25;;;;;;;;;;;20.90;99.90;;;;;;5051738;28;20020;-85
2023/07/06 06:40:51;;;;;;;;;;;21.30;99.90;;;;;;5052321;28;20352;-85
2023/07/06 06:43:17;;;;;;;;;;;21.50;99.90;;;;;;5051595;28;19970;-86
2023/07/06 06:45:42;;;;;;;;;;;21.80;99.90;;;;;;5047943;28;19939;-85
2023/07/06 06:48:08;;;;;;;;;;;22.00;99.90;;;;;;5039977;28;19925;-86
2023/07/06 06:50:33;;;;;;;;;;;22.00;99.90;;;;;;5055786;28;19971;-85
2023/07/06 06:52:59;;;;;;;;;;;22.20;99.90;;;;;;5053564;28;20395;-89
2023/07/06 06:55:25;;;;;;;;;;;22.50;99.90;;;;;;5062820;28;19947;-85
2023/07/06 06:57:52;;;;;;;;;;;22.60;99.90;;;;;;5053093;28;19932;-85
2023/07/06 07:00:18;;;;;;;;;;;22.20;99.90;;;;;;5063029;28;19925;-86
2023/07/06 07:02:43;;;;;;;;;;;22.00;99.90;;;;;;5052896;28;19925;-84
2023/07/06 07:05:09;;;;;;;;;;;22.20;99.90;;;;;;5051194;28;20276;-86
2023/07/06 07:07:37;;;;;;;;;;;22.60;99.90;;;;;;5062720;28;19979;-85
2023/07/06 07:10:09;;;;;;;;;;;22.70;99.90;;;;;;5048991;28;19933;-84
2023/07/06 07:12:36;;;;;;;;;;;22.80;99.90;;;;;;5051766;28;19982;-86
2023/07/06 07:15:02;;;;;;;;;;;22.60;99.90;;;;;;5020817;28;19929;-85
2023/07/06 07:17:27;;;;;;;;;;;22.40;99.90;;;;;;5052508;28;19929;-85
2023/07/06 07:19:53;;;;;;;;;;;22.60;99.90;;;;;;5034844;28;19933;-87
2023/07/06 07:22:18;;;;;;;;;;;22.50;99.90;;;;;;5016782;28;20027;-85
2023/07/06 07:24:44;;;;;;;;;;;22.50;99.90;;;;;;5051654;28;20399;-84
2023/07/06 07:27:11;;;;;;;;;;;22.50;99.90;;;;;;5051612;28;20276;-85
2023/07/06 07:29:36;;;;;;;;;;;22.30;99.90;;;;;;5052909;28;19929;-84
2023/07/06 07:32:02;;;;;;;;;;;22.20;99.90;;;;;;5037483;28;19936;-83
2023/07/06 07:34:28;;;;;;;;;;;22.20;99.90;;;;;;5049176;28;20388;-85
2023/07/06 07:36:54;;;;;;;;;;;22.10;99.90;;;;;;5050509;28;19929;-87
2023/07/06 07:39:19;;;;;;;;;;;22.30;99.90;;;;;;5049767;28;19994;-85
2023/07/06 07:41:45;;;;;;;;;;;22.60;99.90;;;;;;5054181;28;19935;-85
2023/07/06 07:44:11;;;;;;;;;;;22.50;99.90;;;;;;5038236;28;20436;-84
2023/07/06 07:46:37;;;;;;;;;;;22.30;99.90;;;;;;5050348;28;19933;-87
2023/07/06 07:49:03;;;;;;;;;;;21.80;99.90;;;;;;5050754;28;19925;-84
2023/07/06 07:51:31;;;;;;;;;;;21.50;99.90;;;;;;5051958;28;19931;-83
2023/07/06 07:53:57;;;;;;;;;;;21.40;99.90;;;;;;5031377;28;19933;-87
2023/07/06 07:56:26;;;;;;;;;;;21.80;99.90;;;;;;5048794;28;19987;-86
2023/07/06 07:58:52;;;;;;;;;;;22.30;99.90;;;;;;5043977;28;19925;-84
2023/07/06 08:01:20;;;;;;;;;;;22.90;99.90;;;;;;5050778;28;20014;-84
2023/07/06 08:03:46;;;;;;;;;;;23.20;99.90;;;;;;5050204;28;19925;-83
2023/07/06 08:06:14;;;;;;;;;;;23.60;99.90;;;;;;5032621;28;20379;-84
2023/07/06 08:08:42;;;;;;;;;;;24.00;99.90;;;;;;5065119;28;19924;-85
2023/07/06 08:11:10;;;;;;;;;;;23.90;99.90;;;;;;5040985;28;19936;-85
2023/07/06 08:13:36;;;;;;;;;;;23.70;99.90;;;;;;5057732;28;19928;-84
2023/07/06 08:16:03;;;;;;;;;;;23.40;99.90;;;;;;5064397;28;19928;-87
2023/07/06 08:18:28;;;;;;;;;;;23.40;99.90;;;;;;5062207;28;19968;-84
2023/07/06 08:20:54;;;;;;;;;;;23.40;99.90;;;;;;5059196;28;19960;-84
2023/07/06 08:23:24;;;;;;;;;;;23.60;99.90;;;;;;5059311;28;20009;-83
2023/07/06 08:25:52;;;;;;;;;;;23.70;99.90;;;;;;5061728;28;19932;-84
2023/07/06 08:28:20;;;;;;;;;;;24.00;99.90;;;;;;5055025;28;19970;-84
2023/07/06 08:30:45;;;;;;;;;;;24.10;99.90;;;;;;5060907;28;19936;-85
2023/07/06 08:33:12;;;;;;;;;;;24.30;99.90;;;;;;5053398;28;21267;-85
2023/07/06 08:35:42;;;;;;;;;;;24.50;99.90;;;;;;5041604;28;19932;-85
2023/07/06 08:38:07;;;;;;;;;;;24.40;99.90;;;;;;5040613;28;20007;-87
2023/07/06 08:40:35;;;;;;;;;;;24.20;99.90;;;;;;5059726;28;20073;-85
2023/07/06 08:43:02;;;;;;;;;;;24.00;99.90;;;;;;5052951;28;20383;-84
2023/07/06 08:45:48;;;;;;;;;;;23.90;99.90;;;;;;5052027;28;20281;-84
2023/07/06 08:48:16;;;;;;;;;;;24.10;99.90;;;;;;5049411;28;19944;-84
2023/07/06 08:50:44;;;;;;;;;;;23.90;99.90;;;;;;5050164;28;19929;-86
2023/07/06 08:53:14;;;;;;;;;;;23.50;99.90;;;;;;5050700;28;20410;-83
2023/07/06 08:55:43;;;;;;;;;;;23.20;99.90;;;;;;5033060;28;19975;-88
2023/07/06 08:58:18;;;;;;;;;;;22.90;99.90;;;;;;5049706;28;19951;-84
2023/07/06 09:00:43;;;;;;;;;;;22.90;99.90;;;;;;5049111;28;19932;-84
2023/07/06 09:03:10;;;;;;;;;;;23.10;99.90;;;;;;5056691;28;20367;-84
2023/07/06 09:05:41;;;;;;;;;;;23.30;99.90;;;;;;5056308;28;19935;-86
2023/07/06 09:08:10;;;;;;;;;;;23.40;99.90;;;;;;5043437;28;20295;-85
2023/07/06 09:10:36;;;;;;;;;;;23.60;99.90;;;;;;5052796;28;19924;-85
2023/07/06 09:13:13;;;;;;;;;;;23.80;99.90;;;;;;5052761;28;19956;-84
2023/07/06 09:15:39;;;;;;;;;;;24.00;99.90;;;;;;5041866;28;19968;-84
2023/07/06 09:18:05;;;;;;;;;;;24.40;99.90;;;;;;5057334;28;20041;-84
2023/07/06 09:20:32;;;;;;;;;;;24.60;99.90;;;;;;5036978;28;19933;-84
2023/07/06 09:22:58;;;;;;;;;;;24.60;99.90;;;;;;5052204;28;20014;-84
2023/07/06 09:25:26;;;;;;;;;;;24.50;99.90;;;;;;5054343;28;20083;-83
2023/07/06 09:27:55;;;;;;;;;;;24.60;99.90;;;;;;5054508;28;20022;-83
2023/07/06 09:30:29;;;;;;;;;;;24.50;99.90;;;;;;5049518;28;19940;-86
2023/07/06 09:32:59;;;;;;;;;;;24.20;95.10;;;;;;5038531;28;20360;-87
2023/07/06 09:35:29;;;;;;;;;;;23.80;99.90;;;;;;5053975;28;19925;-84
2023/07/06 09:37:54;;;;;;;;;;;23.50;99.90;;;;;;5053236;28;19936;-85
2023/07/06 09:40:27;;;;;;;;;;;23.10;99.90;;;;;;5036278;28;19925;-85
2023/07/06 09:42:52;;;;;;;;;;;22.80;99.90;;;;;;5054036;28;20351;-85
2023/07/06 09:45:21;;;;;;;;;;;22.50;99.90;;;;;;5036484;28;19932;-85
2023/07/06 09:47:49;;;;;;;;;;;22.30;99.90;;;;;;5052957;28;19925;-85
2023/07/06 09:50:20;;;;;;;;;;;22.20;99.90;;;;;;5057759;28;20019;-85
2023/07/06 09:52:45;;;;;;;;;;;22.60;99.90;;;;;;5041948;28;19929;-84
2023/07/06 09:55:20;;;;;;;;;;;23.00;99.90;;;;;;5054059;28;19925;-84
2023/07/06 09:57:49;;;;;;;;;;;23.20;99.90;;;;;;5034037;28;20031;-82
2023/07/06 10:00:19;;;;;;;;;;;23.20;99.90;;;;;;5052475;28;19925;-84
2023/07/06 10:02:50;;;;;;;;;;;23.20;99.90;;;;;;5057342;28;20423;-85
2023/07/06 10:05:25;;;;;;;;;;;23.60;99.90;;;;;;5053934;28;20037;-86
2023/07/06 10:07:52;;;;;;;;;;;23.90;99.90;;;;;;5053480;28;19955;-87
2023/07/06 10:10:21;;;;;;;;;;;23.80;98.30;;;;;;5054821;28;20043;-84
2023/07/06 10:12:53;;;;;;;;;;;23.40;99.90;;;;;;5053974;28;20371;-84
2023/07/06 10:15:19;;;;;;;;;;;23.00;99.90;;;;;;5054818;28;19976;-85
2023/07/06 10:17:48;;;;;;;;;;;22.60;99.90;;;;;;5056030;28;20461;-84
2023/07/06 10:20:18;;;;;;;;;;;22.70;99.90;;;;;;5054949;28;19925;-84
2023/07/06 10:22:54;;;;;;;;;;;22.90;99.50;;;;;;5053401;28;19960;-83
2023/07/06 10:25:34;;;;;;;;;;;22.80;99.90;;;;;;5039054;28;19933;-85
2023/07/06 10:28:07;;;;;;;;;;;22.70;97.70;;;;;;5052724;28;19936;-85
2023/07/06 10:30:40;;;;;;;;;;;22.70;99.90;;;;;;5054521;28;19925;-84
2023/07/06 10:33:13;;;;;;;;;;;22.80;99.90;;;;;;5060671;28;19984;-85
2023/07/06 10:35:52;;;;;;;;;;;22.60;99.90;;;;;;5052035;28;20015;-84
2023/07/06 10:38:18;;;;;;;;;;;22.30;99.90;;;;;;5053203;28;19932;-84
2023/07/06 10:41:06;;;;;;;;;;;22.20;99.90;;;;;;5051356;28;19935;-84
2023/07/06 10:43:32;;;;;;;;;;;22.10;99.90;;;;;;5028891;28;19925;-84
2023/07/06 10:45:59;;;;;;;;;;;22.20;99.90;;;;;;5056516;28;19924;-85
2023/07/06 10:48:25;;;;;;;;;;;22.50;99.90;;;;;;5061956;28;19929;-85
2023/07/06 10:50:50;;;;;;;;;;;22.70;99.90;;;;;;5052975;28;19991;-84
2023/07/06 10:53:32;;;;;;;;;;;22.70;99.90;;;;;;5058646;28;19925;-84
2023/07/06 10:56:13;;;;;;;;;;;22.60;99.90;;;;;;5037892;28;19933;-86
2023/07/06 10:58:45;;;;;;;;;;;22.60;99.90;;;;;;5052706;28;19970;-84
2023/07/06 11:01:10;;;;;;;;;;;22.70;99.90;;;;;;5052433;28;19937;-85
2023/07/06 11:03:37;;;;;;;;;;;22.90;99.90;;;;;;5059090;28;19933;-89
2023/07/06 11:06:10;;;;;;;;;;;23.20;99.90;;;;;;5051096;28;20102;-83
2023/07/06 11:08:55;;;;;;;;;;;23.50;99.90;;;;;;5052371;28;19968;-84
2023/07/06 11:11:21;;;;;;;;;;;23.70;99.90;;;;;;5060782;28;19929;-84
2023/07/06 11:13:53;;;;;;;;;;;24.00;99.50;;;;;;5051762;28;19925;-85
2023/07/06 11:16:37;;;;;;;;;;;24.20;99.90;;;;;;5052156;28;19967;-84
2023/07/06 11:19:03;;;;;;;;;;;24.40;97.40;;;;;;5038700;28;19925;-85
2023/07/06 11:21:36;;;;;;;;;;;24.20;99.40;;;;;;5051469;28;19971;-84
2023/07/06 11:24:08;;;;;;;;;;;24.00;96.80;;;;;;5045795;28;20378;-84
2023/07/06 11:26:33;;;;;;;;;;;23.60;97.70;;;;;;5059362;28;19928;-86
2023/07/06 11:28:59;;;;;;;;;;;23.40;98.30;;;;;;5048086;28;19935;-85
2023/07/06 11:31:28;;;;;;;;;;;23.50;98.90;;;;;;5030152;28;19932;-86
2023/07/06 11:34:00;;;;;;;;;;;23.60;97.90;;;;;;5051095;28;19925;-84
2023/07/06 11:36:32;;;;;;;;;;;23.80;95.40;;;;;;5042699;28;19924;-83
2023/07/06 11:39:18;;;;;;;;;;;23.80;94.30;;;;;;5046654;28;19929;-85
2023/07/06 11:41:44;;;;;;;;;;;24.10;97.00;;;;;;5044066;28;20343;-85
2023/07/06 11:44:13;;;;;;;;;;;24.50;94.10;;;;;;5065222;28;20019;-84
2023/07/06 11:46:41;;;;;;;;;;;24.80;93.00;;;;;;5050346;28;19968;-85
2023/07/06 11:49:20;;;;;;;;;;;24.90;94.00;;;;;;5050592;28;19925;-85
2023/07/06 11:51:47;;;;;;;;;;;25.00;94.10;;;;;;5033712;28;20008;-84
2023/07/06 11:54:29;;;;;;;;;;;25.00;93.00;;;;;;5042984;28;20373;-85
2023/07/06 11:57:24;;;;;;;;;;;25.00;91.00;;;;;;5051830;28;20016;-86
2023/07/06 12:00:14;;;;;;;;;;;24.90;93.80;;;;;;5050412;28;20417;-88
2023/07/06 12:02:40;;;;;;;;;;;24.90;96.00;;;;;;5051764;28;20023;-85
2023/07/06 12:05:26;;;;;;;;;;;25.00;88.10;;;;;;5051438;28;20419;-86
2023/07/06 12:07:56;;;;;;;;;;;25.10;88.80;;;;;;5034072;28;19947;-87
2023/07/06 12:10:22;;;;;;;;;;;25.30;89.40;;;;;;5049939;28;19925;-84
2023/07/06 12:12:47;;;;;;;;;;;25.20;86.00;;;;;;5031133;28;19936;-85
2023/07/06 12:15:13;;;;;;;;;;;25.10;88.00;;;;;;5031028;28;19925;-84
2023/07/06 12:17:40;;;;;;;;;;;24.80;90.10;;;;;;5051324;28;19963;-85
2023/07/06 12:20:10;;;;;;;;;;;24.50;87.00;;;;;;5050938;28;19986;-84
2023/07/06 12:22:48;;;;;;;;;;;24.10;82.70;;;;;;5050062;28;19924;-84
2023/07/06 12:25:18;;;;;;;;;;;23.80;90.30;;;;;;5033285;28;20337;-85
2023/07/06 12:27:44;;;;;;;;;;;23.60;90.20;;;;;;5039573;28;19925;-85
2023/07/06 12:30:12;;;;;;;;;;;23.40;92.70;;;;;;5066491;28;19979;-84
2023/07/06 12:32:37;;;;;;;;;;;23.20;91.70;;;;;;5049026;28;20700;-85
2023/07/06 12:35:04;;;;;;;;;;;23.10;93.30;;;;;;5046496;28;19924;-86
2023/07/06 12:37:30;;;;;;;;;;;23.00;94.10;;;;;;5048431;28;19925;-85
2023/07/06 12:39:56;;;;;;;;;;;22.70;95.10;;;;;;5050630;28;19925;-88
2023/07/06 12:42:21;;;;;;;;;;;22.50;94.00;;;;;;5049237;28;19976;-86
2023/07/06 12:44:51;;;;;;;;;;;22.30;94.70;;;;;;5050755;28;19932;-89
2023/07/06 12:47:43;;;;;;;;;;;22.10;97.30;;;;;;5033288;28;19929;-86
2023/07/06 12:50:14;;;;;;;;;;;22.00;96.30;;;;;;5033003;28;19925;-88
2023/07/06 12:52:39;;;;;;;;;;;21.90;98.00;;;;;;5033129;28;20278;-86
2023/07/06 12:55:05;;;;;;;;;;;22.00;98.30;;;;;;5048699;28;19925;-86
2023/07/06 12:57:35;;;;;;;;;;;22.10;98.60;;;;;;5054606;28;20440;-88
2023/07/06 13:00:10;;;;;;;;;;;22.60;99.40;;;;;;5050596;28;20295;-87
2023/07/06 13:02:37;;;;;;;;;;;23.00;96.20;;;;;;5050580;28;19925;-87
2023/07/06 13:05:16;;;;;;;;;;;23.10;94.10;;;;;;5052160;28;20568;-88
2023/07/06 13:07:42;;;;;;;;;;;23.10;94.30;;;;;;5035761;28;19983;-88
2023/07/06 13:10:16;;;;;;;;;;;22.90;93.90;;;;;;5032062;28;19929;-86
2023/07/06 13:12:42;;;;;;;;;;;22.80;95.00;;;;;;5050631;28;20281;-86
2023/07/06 13:15:14;;;;;;;;;;;22.70;94.30;;;;;;5034269;28;19924;-87
2023/07/06 13:17:47;;;;;;;;;;;22.60;96.00;;;;;;5033013;28;19925;-86
2023/07/06 13:20:13;;;;;;;;;;;22.50;97.70;;;;;;5050894;28;20367;-85
2023/07/06 13:22:39;;;;;;;;;;;22.40;96.70;;;;;;5058626;28;19929;-84
2023/07/06 13:25:04;;;;;;;;;;;22.20;97.00;;;;;;5048292;28;20574;-85
2023/07/06 13:27:31;;;;;;;;;;;22.20;97.30;;;;;;5049171;28;19925;-85
2023/07/06 13:29:57;;;;;;;;;;;22.10;97.90;;;;;;5049510;28;19931;-84
2023/07/06 13:32:24;;;;;;;;;;;22.00;97.40;;;;;;5049430;28;19925;-85
2023/07/06 13:34:50;;;;;;;;;;;22.00;98.40;;;;;;5049501;28;19972;-85
2023/07/06 13:37:22;;;;;;;;;;;21.90;98.30;;;;;;5060470;28;20025;-84
2023/07/06 13:39:48;;;;;;;;;;;22.00;98.90;;;;;;5015279;28;19979;-84
2023/07/06 13:42:13;;;;;;;;;;;22.10;99.00;;;;;;5048397;28;20291;-85
2023/07/06 13:44:39;;;;;;;;;;;22.30;97.00;;;;;;5049138;28;19925;-85
2023/07/06 13:47:08;;;;;;;;;;;22.40;97.30;;;;;;5049155;28;19929;-86
2023/07/06 13:49:34;;;;;;;;;;;22.50;95.50;;;;;;5017644;28;19924;-86
2023/07/06 13:51:59;;;;;;;;;;;22.50;97.10;;;;;;5048855;28;19925;-85
2023/07/06 13:54:26;;;;;;;;;;;22.60;97.60;;;;;;5057575;28;19971;-85
2023/07/06 13:56:51;;;;;;;;;;;22.80;99.10;;;;;;5047374;28;19928;-85
2023/07/06 13:59:19;;;;;;;;;;;22.90;98.80;;;;;;5052919;28;20422;-83
2023/07/06 14:01:47;;;;;;;;;;;22.90;98.50;;;;;;5054895;28;19929;-85
2023/07/06 14:04:15;;;;;;;;;;;22.70;96.40;;;;;;5051243;28;19932;-86
2023/07/06 14:06:41;;;;;;;;;;;22.60;94.80;;;;;;5066904;28;19940;-84
2023/07/06 14:09:06;;;;;;;;;;;22.80;96.30;;;;;;5060181;28;19925;-84
2023/07/06 14:11:32;;;;;;;;;;;22.90;94.00;;;;;;5034023;28;19924;-85
2023/07/06 14:13:57;;;;;;;;;;;23.20;93.70;;;;;;5059021;28;20283;-83
2023/07/06 14:16:24;;;;;;;;;;;23.40;93.50;;;;;;5041562;28;20019;-90
2023/07/06 14:18:51;;;;;;;;;;;23.60;93.10;;;;;;5036647;28;19932;-88
2023/07/06 14:21:21;;;;;;;;;;;23.90;92.10;;;;;;5036122;28;19935;-86
2023/07/06 14:23:46;;;;;;;;;;;24.10;89.70;;;;;;5053263;28;19933;-88